Terminal Aerodrome Forecast
Issued by NWS

Home | Current Version | Previous Version | Text Only | Print | Product List | Glossary On
Versions: 1 2 3 4 5 6 7 8 9 10 11 12 13 14 15 16 17 18 19 20 21 22 23 24 25 26
000
FTUS43 KILX 290522
TAFDEC
TAF
KDEC 290522Z 2906/3006 20009KT P6SM SCT050 BKN120
     FM291000 23006KT P6SM SCT150
     FM291700 28010KT P6SM SCT040
     FM300200 29004KT P6SM SKC=

USA.gov is the U.S. government's official web portal to all federal, state and local government web resources and services.